Time;durP1;ratioP1;P1;durP2;ratioP2;P2;SDS_P1;SDS_P2;PMS_P1;PMS_P2;Temp;Humidity;BMP_temperature;BMP_pressure;BME280_temperature;BME280_humidity;BME280_pressure;Samples;Min_cycle;Max_cycle;Signal;HPM_P1;HPM_P2
2023/02/11 00:00:33;;;;;;;77.90;30.60;;;;;;;-9.63;100.00;102499.14;103407;1286;73707;-76
2023/02/11 00:02:59;;;;;;;88.20;33.10;;;;;;;-9.66;100.00;102492.71;103464;1285;60414;-77
2023/02/11 00:05:24;;;;;;;94.70;33.50;;;;;;;-9.68;100.00;102488.65;103210;1285;60430;-77
2023/02/11 00:07:50;;;;;;;98.70;35.60;;;;;;;-9.69;100.00;102488.52;103260;1290;60425;-76
2023/02/11 00:10:15;;;;;;;89.30;32.80;;;;;;;-9.72;100.00;102482.59;103174;1286;60467;-76
2023/02/11 00:12:42;;;;;;;82.40;32.30;;;;;;;-9.75;100.00;102479.12;103370;1285;72871;-77
2023/02/11 00:15:08;;;;;;;78.60;29.60;;;;;;;-9.79;100.00;102473.40;103000;1292;60405;-76
2023/02/11 00:17:34;;;;;;;77.90;29.30;;;;;;;-9.82;100.00;102466.23;103366;1285;60415;-76
2023/02/11 00:20:00;;;;;;;79.00;29.10;;;;;;;-9.86;100.00;102454.98;103392;1290;60016;-77
2023/02/11 00:25:47;;;;;;;84.00;30.30;;;;;;;-9.87;100.00;102452.79;103462;1285;74133;-77
2023/02/11 00:28:13;;;;;;;91.10;32.50;;;;;;;-9.86;100.00;102445.63;103473;1285;60399;-77
2023/02/11 00:30:39;;;;;;;82.60;32.70;;;;;;;-9.87;100.00;102450.67;103406;1285;60386;-77
2023/02/11 00:33:04;;;;;;;97.80;34.90;;;;;;;-9.86;100.00;102453.05;103590;1285;60412;-76
2023/02/11 00:35:30;;;;;;;94.10;32.60;;;;;;;-9.85;100.00;102447.98;103215;1285;60422;-77
2023/02/11 00:37:55;;;;;;;82.40;33.20;;;;;;;-9.86;100.00;102443.15;103337;1290;60411;-76
2023/02/11 00:40:21;;;;;;;84.20;31.00;;;;;;;-9.86;100.00;102438.11;103363;1289;60421;-77
2023/02/11 00:42:47;;;;;;;85.70;31.80;;;;;;;-9.88;100.00;102438.05;103399;1286;60431;-77
2023/02/11 00:45:12;;;;;;;94.50;32.30;;;;;;;-9.90;100.00;102444.61;103494;1288;60411;-76
2023/02/11 00:47:38;;;;;;;88.40;34.60;;;;;;;-9.90;100.00;102454.85;103381;1291;60331;-77
2023/02/11 00:50:05;;;;;;;91.80;33.10;;;;;;;-9.91;100.00;102453.00;103290;1291;61603;-77
2023/02/11 00:56:14;;;;;;;122.90;42.10;;;;;;;-9.90;100.00;102448.74;103186;1288;599533;-77
2023/02/11 00:58:40;;;;;;;145.10;44.40;;;;;;;-9.89;100.00;102444.05;102897;1295;60382;-77
2023/02/11 01:01:06;;;;;;;162.90;44.90;;;;;;;-9.86;100.00;102436.05;102794;1289;60399;-77
2023/02/11 01:03:33;;;;;;;134.50;42.80;;;;;;;-9.88;100.00;102428.82;102897;1293;60799;-77
2023/02/11 01:05:58;;;;;;;132.90;39.20;;;;;;;-9.85;100.00;102427.84;103212;1295;60396;-76
2023/02/11 01:08:24;;;;;;;138.40;39.90;;;;;;;-9.85;100.00;102430.06;103074;1297;60411;-75
2023/02/11 01:11:01;;;;;;;136.60;37.90;;;;;;;-9.85;100.00;102429.20;99752;1286;5371715;-77
2023/02/11 01:13:29;;;;;;;139.80;41.50;;;;;;;-9.82;100.00;102424.36;103534;1287;74836;-75
2023/02/11 01:15:54;;;;;;;135.80;39.70;;;;;;;-9.82;100.00;102426.27;103548;1285;72716;-77
2023/02/11 01:18:20;;;;;;;121.80;35.60;;;;;;;-9.84;100.00;102420.27;103165;1286;60490;-77
2023/02/11 01:20:45;;;;;;;98.50;33.30;;;;;;;-9.83;100.00;102416.42;103553;1286;60398;-77
2023/02/11 01:23:11;;;;;;;113.50;36.80;;;;;;;-9.84;100.00;102412.44;103158;1287;60296;-77
2023/02/11 01:25:37;;;;;;;103.20;34.10;;;;;;;-9.83;100.00;102411.89;103682;1289;60894;-77
2023/02/11 01:28:02;;;;;;;107.70;33.90;;;;;;;-9.83;100.00;102412.23;103552;1286;63210;-76
2023/02/11 01:30:28;;;;;;;106.30;33.60;;;;;;;-9.82;100.00;102408.20;103472;1286;60402;-76
2023/02/11 01:32:53;;;;;;;114.20;35.50;;;;;;;-9.82;100.00;102415.67;103577;1284;60331;-76
2023/02/11 01:35:19;;;;;;;111.00;34.90;;;;;;;-9.85;100.00;102415.46;103544;1288;60359;-77
2023/02/11 01:37:44;;;;;;;105.80;33.00;;;;;;;-9.86;100.00;102422.65;103508;1285;60346;-76
2023/02/11 01:40:14;;;;;;;101.50;31.90;;;;;;;-9.88;100.00;102422.05;103507;1289;60411;-76
2023/02/11 01:42:40;;;;;;;104.90;34.30;;;;;;;-9.90;100.00;102424.80;103753;1286;74146;-77
2023/02/11 01:48:42;;;;;;;106.70;35.20;;;;;;;-9.91;100.00;102430.76;102744;1289;603465;-75
2023/02/11 01:51:22;;;;;;;97.90;33.20;;;;;;;-9.95;100.00;102429.58;103235;1290;63151;-75
2023/02/11 01:59:38;;;;;;;106.20;32.30;;;;;;;-10.02;100.00;102434.25;103434;1290;72630;-76
2023/02/11 02:02:08;;;;;;;96.20;31.60;;;;;;;-10.04;100.00;102435.10;99482;1286;5358096;-75
2023/02/11 02:04:41;;;;;;;90.90;32.70;;;;;;;-10.06;100.00;102436.77;103583;1286;63186;-75
2023/02/11 02:07:18;;;;;;;88.60;29.90;;;;;;;-10.08;100.00;102434.91;103664;1286;61921;-77
2023/02/11 02:09:51;;;;;;;90.30;29.50;;;;;;;-10.11;100.00;102437.71;103496;1285;73272;-75
2023/02/11 02:12:16;;;;;;;;;;;;;;;-10.13;100.00;102435.73;103497;1285;74600;-75
2023/02/11 02:14:42;;;;;;;85.20;30.40;;;;;;;-10.15;100.00;102435.98;103520;1285;60423;-75
2023/02/11 02:17:36;;;;;;;86.00;32.30;;;;;;;-10.15;100.00;102438.45;103330;1291;60408;-76
2023/02/11 02:20:34;;;;;;;87.40;30.00;;;;;;;-10.16;100.00;102440.08;103495;1289;61443;-76
2023/02/11 02:23:23;;;;;;;90.80;29.00;;;;;;;-10.15;100.00;102441.56;102757;1292;73145;-75
2023/02/11 02:26:14;;;;;;;87.50;32.10;;;;;;;-10.12;100.00;102439.65;102012;1298;73204;-76
2023/02/11 02:29:17;;;;;;;122.20;37.80;;;;;;;-10.11;100.00;102435.80;102549;1300;74137;-75
2023/02/11 02:31:56;;;;;;;117.90;37.90;;;;;;;-10.09;100.00;102431.17;102593;1300;62708;-76
2023/02/11 02:34:28;;;;;;;105.20;34.40;;;;;;;-10.06;100.00;102437.45;102546;1297;61438;-75
2023/02/11 02:37:03;;;;;;;100.30;32.00;;;;;;;-10.05;100.00;102440.17;102458;1297;74343;-76
2023/02/11 02:39:32;;;;;;;103.10;32.80;;;;;;;-10.03;100.00;102440.10;102176;1298;74865;-76
2023/02/11 02:41:58;;;;;;;98.10;33.20;;;;;;;-10.03;100.00;102440.46;102372;1299;72972;-76
2023/02/11 02:44:24;;;;;;;89.70;29.90;;;;;;;-10.04;100.00;102434.04;102491;1298;60668;-75
2023/02/11 02:46:50;;;;;;;92.60;31.20;;;;;;;-10.04;100.00;102430.55;102290;1298;60612;-76
2023/02/11 02:49:16;;;;;;;92.10;29.30;;;;;;;-10.03;100.00;102433.44;102427;1297;61291;-76
2023/02/11 02:52:09;;;;;;;88.00;29.30;;;;;;;-10.03;100.00;102430.89;102530;1300;60566;-75
2023/02/11 02:54:43;;;;;;;86.20;26.50;;;;;;;-10.08;100.00;102431.96;102546;1300;72224;-75
2023/02/11 02:57:39;;;;;;;73.70;27.30;;;;;;;-10.11;100.00;102423.98;102350;1298;62233;-75
2023/02/11 03:00:31;;;;;;;73.50;27.50;;;;;;;-10.18;100.00;102421.59;102622;1292;60749;-75
2023/02/11 03:03:39;;;;;;;77.60;27.80;;;;;;;-10.20;100.00;102426.88;102541;1292;603816;-77
2023/02/11 03:06:10;;;;;;;72.20;26.60;;;;;;;-10.25;100.00;102432.19;102972;1291;62163;-76
2023/02/11 03:08:52;;;;;;;73.50;25.50;;;;;;;-10.29;100.00;102431.37;102903;1291;60566;-77
2023/02/11 03:11:19;;;;;;;71.20;24.40;;;;;;;-10.33;100.00;102432.83;102932;1292;73408;-75
2023/02/11 03:13:47;;;;;;;84.60;26.60;;;;;;;-10.37;100.00;102432.46;103180;1293;73882;-77
2023/02/11 03:16:18;;;;;;;73.10;25.60;;;;;;;-10.41;100.00;102423.80;99449;1288;5339220;-76
2023/02/11 03:18:49;;;;;;;72.10;25.70;;;;;;;-10.44;100.00;102429.38;103281;1286;64006;-76
2023/02/11 03:21:17;;;;;;;63.00;26.20;;;;;;;-10.49;100.00;102428.09;103400;1288;60838;-76
2023/02/11 03:23:54;;;;;;;74.60;25.90;;;;;;;-10.56;100.00;102427.87;103321;1291;73305;-77
2023/02/11 03:26:22;;;;;;;73.60;26.00;;;;;;;-10.59;100.00;102429.79;103319;1289;75148;-77
2023/02/11 03:29:08;;;;;;;74.80;27.10;;;;;;;-10.64;100.00;102427.39;103115;1293;72483;-77
2023/02/11 03:32:14;;;;;;;81.40;26.80;;;;;;;-10.68;100.00;102420.84;103073;1289;62876;-76
2023/02/11 03:34:54;;;;;;;82.60;26.80;;;;;;;-10.71;100.00;102419.78;103165;1289;60670;-76
2023/02/11 03:37:41;;;;;;;83.10;27.30;;;;;;;-10.75;100.00;102416.30;103209;1287;74359;-76
2023/02/11 03:40:20;;;;;;;79.00;28.00;;;;;;;-10.79;100.00;102415.65;103236;1288;74851;-76
2023/02/11 03:43:05;;;;;;;92.50;31.70;;;;;;;-10.82;100.00;102409.58;103255;1285;74090;-75
2023/02/11 03:45:32;;;;;;;83.40;28.00;;;;;;;-10.85;100.00;102409.52;103214;1287;64101;-76
2023/02/11 03:48:14;;;;;;;71.80;25.10;;;;;;;-10.88;100.00;102411.77;103170;1288;60433;-76
2023/02/11 03:50:41;;;;;;;73.40;26.90;;;;;;;-10.92;100.00;102406.79;103203;1288;73336;-76
2023/02/11 03:53:07;;;;;;;73.70;28.00;;;;;;;-10.94;100.00;102401.84;103295;1287;60313;-75
2023/02/11 03:55:37;;;;;;;74.60;28.20;;;;;;;-10.95;100.00;102404.85;103259;1290;60403;-76
2023/02/11 03:58:02;;;;;;;76.80;26.00;;;;;;;-10.98;100.00;102406.02;103226;1288;63082;-76
2023/02/11 04:04:13;;;;;;;79.70;27.70;;;;;;;-10.97;100.00;102393.98;102656;1289;600721;-75
2023/02/11 04:06:39;;;;;;;74.80;26.00;;;;;;;-11.01;100.00;102389.83;103111;1289;60412;-75
2023/02/11 04:09:04;;;;;;;76.80;24.90;;;;;;;-11.03;100.00;102385.42;103097;1295;60424;-75
2023/02/11 04:11:30;;;;;;;75.50;26.00;;;;;;;-11.05;100.00;102382.42;103190;1290;60997;-75
2023/02/11 04:13:55;;;;;;;73.90;24.60;;;;;;;-11.07;100.00;102386.30;103383;1291;60409;-76
2023/02/11 04:16:21;;;;;;;72.50;24.90;;;;;;;-11.07;100.00;102390.00;103053;1293;62854;-75
2023/02/11 04:18:47;;;;;;;74.70;27.20;;;;;;;-11.09;100.00;102393.02;99616;1291;5327426;-75
2023/02/11 04:21:12;;;;;;;71.60;27.50;;;;;;;-11.12;100.00;102395.92;103129;1289;60402;-75
2023/02/11 04:23:37;;;;;;;101.80;37.30;;;;;;;-11.14;100.00;102397.92;103268;1286;60477;-75
2023/02/11 04:26:03;;;;;;;107.00;36.30;;;;;;;-11.17;100.00;102397.25;103282;1292;60436;-75
2023/02/11 04:31:51;;;;;;;84.70;28.10;;;;;;;-11.18;100.00;102399.01;103235;1291;74970;-76
2023/02/11 04:37:49;;;;;;;78.60;29.10;;;;;;;-11.18;100.00;102393.28;103298;1287;602704;-75
2023/02/11 04:40:14;;;;;;;83.30;27.90;;;;;;;-11.20;100.00;102392.15;103545;1285;60398;-77
2023/02/11 04:42:40;;;;;;;80.60;27.50;;;;;;;-11.21;100.00;102391.67;103255;1289;60418;-75
2023/02/11 04:45:06;;;;;;;88.60;27.00;;;;;;;-11.22;100.00;102392.42;103551;1288;60415;-75
2023/02/11 04:47:32;;;;;;;82.60;26.90;;;;;;;-11.22;100.00;102391.94;103139;1288;75701;-75
2023/02/11 04:49:58;;;;;;;87.20;30.70;;;;;;;-11.23;100.00;102390.90;103288;1286;60498;-75
2023/02/11 04:52:23;;;;;;;81.20;27.30;;;;;;;-11.22;100.00;102390.48;99870;1285;5324194;-75
2023/02/11 04:54:49;;;;;;;78.90;28.50;;;;;;;-11.21;100.00;102387.86;103476;1283;60310;-75
2023/02/11 04:57:15;;;;;;;74.20;29.40;;;;;;;-11.18;100.00;102387.23;103569;1285;60481;-75
2023/02/11 04:59:40;;;;;;;81.70;29.40;;;;;;;-11.16;100.00;102390.77;103749;1283;60386;-75
2023/02/11 05:02:06;;;;;;;78.30;27.20;;;;;;;-11.13;100.00;102390.61;103717;1289;60403;-75
2023/02/11 05:04:31;;;;;;;77.70;29.60;;;;;;;-11.10;100.00;102381.61;103824;1286;60409;-75
2023/02/11 05:06:57;;;;;;;79.90;28.40;;;;;;;-11.06;100.00;102382.98;103813;1282;73856;-75
2023/02/11 05:09:23;;;;;;;85.50;30.10;;;;;;;-11.04;100.00;102381.99;103596;1286;60398;-75
2023/02/11 05:11:48;;;;;;;84.50;30.20;;;;;;;-11.00;100.00;102380.77;103761;1283;60398;-76
2023/02/11 05:14:14;;;;;;;82.50;27.50;;;;;;;-10.93;100.00;102381.48;103827;1286;60459;-75
2023/02/11 05:16:39;;;;;;;70.90;26.80;;;;;;;-10.84;100.00;102383.48;103552;1283;60418;-75
2023/02/11 05:19:05;;;;;;;82.40;30.50;;;;;;;-10.76;100.00;102386.20;103521;1283;65152;-74
2023/02/11 05:21:30;;;;;;;75.10;28.70;;;;;;;-10.68;100.00;102389.57;103675;1283;60383;-75
2023/02/11 05:23:56;;;;;;;77.10;29.60;;;;;;;-10.59;100.00;102393.82;103790;1283;60818;-74
2023/02/11 05:26:21;;;;;;;80.10;30.10;;;;;;;-10.49;100.00;102397.46;103748;1283;60354;-76
2023/02/11 05:28:47;;;;;;;80.80;28.30;;;;;;;-10.39;100.00;102396.60;103847;1285;60376;-74
2023/02/11 05:31:13;;;;;;;79.30;27.90;;;;;;;-10.28;100.00;102395.35;103659;1286;60434;-77
2023/02/11 05:33:40;;;;;;;84.70;29.60;;;;;;;-10.16;100.00;102392.63;103882;1288;60360;-77
2023/02/11 05:36:08;;;;;;;78.20;27.00;;;;;;;-9.97;100.00;102392.15;103526;1283;60264;-77
2023/02/11 05:38:35;;;;;;;76.30;27.00;;;;;;;-9.64;100.00;102390.19;103554;1283;74095;-76
2023/02/11 05:41:01;;;;;;;77.40;26.50;;;;;;;-9.23;100.00;102394.64;103846;1283;63210;-76
2023/02/11 05:43:27;;;;;;;70.30;24.20;;;;;;;-8.66;100.00;102394.73;103668;1287;60395;-77
2023/02/11 05:45:52;;;;;;;66.10;22.90;;;;;;;-8.16;100.00;102393.78;103734;1283;60462;-77
2023/02/11 05:51:40;;;;;;;67.00;20.60;;;;;;;-6.61;100.00;102392.25;103902;1286;73948;-75
2023/02/11 05:54:05;;;;;;;62.60;19.50;;;;;;;-6.38;100.00;102391.17;103799;1283;60271;-75
2023/02/11 05:56:31;;;;;;;63.30;20.40;;;;;;;-6.25;100.00;102387.66;103835;1282;60479;-75
2023/02/11 05:58:58;;;;;;;62.70;20.10;;;;;;;-6.16;100.00;102384.44;103766;1283;60412;-75
2023/02/11 06:01:25;;;;;;;55.60;18.60;;;;;;;-6.10;100.00;102385.27;103537;1289;60577;-75
2023/02/11 06:03:50;;;;;;;58.00;18.40;;;;;;;-6.00;100.00;102382.26;103856;1286;60322;-75
2023/02/11 06:06:16;;;;;;;56.30;19.60;;;;;;;-5.86;100.00;102379.37;103557;1286;60421;-75
2023/02/11 06:08:42;;;;;;;58.30;19.00;;;;;;;-5.69;100.00;102378.11;103816;1283;60341;-75
2023/02/11 06:11:08;;;;;;;54.90;18.80;;;;;;;-5.43;100.00;102376.99;103751;1286;73704;-76
2023/02/11 06:13:35;;;;;;;46.20;16.90;;;;;;;-5.12;100.00;102376.83;103798;1286;61288;-75
2023/02/11 06:16:02;;;;;;;57.70;18.90;;;;;;;-4.65;100.00;102379.07;103696;1283;60395;-75
2023/02/11 06:18:28;;;;;;;50.80;17.70;;;;;;;-4.14;100.00;102380.30;103576;1288;61521;-76
2023/02/11 06:20:54;;;;;;;55.50;17.70;;;;;;;-3.81;100.00;102377.35;103770;1283;60306;-74
2023/02/11 06:23:20;;;;;;;54.30;19.10;;;;;;;-3.61;100.00;102376.13;103676;1283;60353;-76
2023/02/11 06:25:46;;;;;;;56.70;17.10;;;;;;;-3.53;100.00;102373.86;103742;1286;60344;-75
2023/02/11 06:28:11;;;;;;;54.50;19.10;;;;;;;-3.33;100.00;102374.23;103815;1286;60396;-75
2023/02/11 06:30:37;;;;;;;61.90;17.60;;;;;;;-3.01;100.00;102371.40;103707;1283;60402;-75
2023/02/11 06:33:03;;;;;;;46.50;17.90;;;;;;;-2.05;100.00;102369.58;103661;1283;60405;-76
2023/02/11 06:35:29;;;;;;;48.30;18.30;;;;;;;-0.45;100.00;102364.34;103694;1283;73965;-77
2023/02/11 06:37:55;;;;;;;50.70;17.00;;;;;;;1.03;100.00;102363.48;103615;1283;60370;-76
2023/02/11 06:40:20;;;;;;;45.30;18.30;;;;;;;2.29;100.00;102360.40;103217;1291;60379;-76
2023/02/11 06:42:46;;;;;;;49.00;19.10;;;;;;;3.56;100.00;102353.90;103559;1282;60207;-76
2023/02/11 06:45:12;;;;;;;47.10;20.00;;;;;;;4.65;92.64;102355.32;103747;1283;60427;-77
2023/02/11 06:47:39;;;;;;;46.00;19.10;;;;;;;5.64;81.97;102353.64;103655;1283;60376;-77
2023/02/11 06:50:06;;;;;;;47.70;18.60;;;;;;;6.48;73.33;102350.25;103224;1289;61321;-77
2023/02/11 06:52:33;;;;;;;42.70;17.90;;;;;;;7.22;65.40;102344.12;103270;1291;71572;-76
2023/02/11 06:54:58;;;;;;;45.80;18.80;;;;;;;8.03;60.33;102345.05;103602;1287;60326;-77
2023/02/11 06:57:24;;;;;;;44.90;19.30;;;;;;;8.99;59.78;102341.31;103236;1283;60394;-77
2023/02/11 06:59:50;;;;;;;44.10;20.10;;;;;;;9.95;58.57;102343.05;103612;1282;60414;-77
2023/02/11 07:02:16;;;;;;;45.80;21.40;;;;;;;11.30;65.51;102341.05;103673;1283;60325;-76
2023/02/11 07:08:13;;;;;;;38.10;19.20;;;;;;;14.25;54.80;102346.08;102931;1292;602733;-77
2023/02/11 07:10:39;;;;;;;45.10;22.30;;;;;;;15.13;48.48;102330.34;103056;1301;60506;-76
2023/02/11 07:13:05;;;;;;;43.80;20.30;;;;;;;15.61;45.12;102333.55;103326;1293;60342;-76
2023/02/11 07:15:31;;;;;;;39.90;20.50;;;;;;;15.83;42.64;102332.51;103232;1293;60427;-76
2023/02/11 07:17:56;;;;;;;44.40;21.00;;;;;;;15.71;37.99;102324.30;103372;1295;61013;-77
2023/02/11 07:20:22;;;;;;;47.10;21.20;;;;;;;15.80;38.73;102323.19;103469;1292;60980;-76
2023/02/11 07:22:47;;;;;;;41.20;20.40;;;;;;;16.10;37.06;102320.05;99615;1292;5381605;-77
2023/02/11 07:25:12;;;;;;;38.00;19.50;;;;;;;15.95;34.73;102322.98;103496;1289;60308;-76
2023/02/11 07:27:38;;;;;;;39.50;20.30;;;;;;;16.12;37.11;102321.13;103515;1293;60410;-77
2023/02/11 07:30:04;;;;;;;41.40;21.60;;;;;;;16.58;35.27;102324.80;103915;1286;60927;-76
2023/02/11 07:32:30;;;;;;;40.20;21.00;;;;;;;16.56;35.15;102318.27;103916;1286;72899;-76
2023/02/11 07:34:55;;;;;;;44.50;22.70;;;;;;;17.02;37.40;102316.62;103291;1304;60394;-75
2023/02/11 07:37:21;;;;;;;39.20;20.70;;;;;;;17.64;35.87;102319.27;103920;1296;60276;-75
2023/02/11 07:39:46;;;;;;;59.20;33.00;;;;;;;18.30;36.41;102318.21;103902;1286;60329;-76
2023/02/11 07:42:11;;;;;;;43.40;22.10;;;;;;;18.66;34.40;102317.29;103873;1292;60519;-76
2023/02/11 07:44:37;;;;;;;83.60;57.80;;;;;;;18.71;33.22;102308.73;103346;1286;60552;-76
2023/02/11 07:47:02;;;;;;;50.90;24.80;;;;;;;19.20;33.94;102306.59;103899;1286;60442;-76
2023/02/11 07:49:28;;;;;;;50.00;27.50;;;;;;;19.91;34.45;102298.63;103820;1286;60429;-76
2023/02/11 07:51:54;;;;;;;48.70;24.90;;;;;;;20.29;33.14;102296.88;103859;1289;60338;-76
2023/02/11 07:54:20;;;;;;;49.60;24.40;;;;;;;20.50;32.67;102290.66;104048;1286;60153;-77
2023/02/11 07:56:45;;;;;;;54.90;26.80;;;;;;;20.01;30.24;102287.73;103449;1286;72696;-76
2023/02/11 07:59:11;;;;;;;61.30;32.50;;;;;;;19.91;31.47;102284.98;103753;1286;60769;-76
2023/02/11 08:01:37;;;;;;;55.10;28.30;;;;;;;20.34;31.61;102286.83;103764;1289;60334;-76
2023/02/11 08:04:03;;;;;;;52.20;25.50;;;;;;;20.60;31.57;102294.45;103804;1289;60405;-76
2023/02/11 08:06:33;;;;;;;53.80;25.80;;;;;;;20.73;30.56;102294.19;103337;1293;60546;-77
2023/02/11 08:09:12;;;;;;;54.00;29.80;;;;;;;20.80;30.54;102292.73;103593;1286;73545;-77
2023/02/11 08:11:38;;;;;;;58.90;25.70;;;;;;;20.29;29.62;102291.18;103588;1287;61682;-77
2023/02/11 08:14:03;;;;;;;54.10;26.00;;;;;;;20.29;30.51;102292.92;103562;1291;60447;-77
2023/02/11 08:16:32;;;;;;;56.50;28.40;;;;;;;20.40;29.96;102292.42;103335;1286;60356;-77
2023/02/11 08:19:00;;;;;;;52.80;28.00;;;;;;;20.46;27.78;102290.63;103605;1286;74682;-76
2023/02/11 08:21:27;;;;;;;58.70;29.20;;;;;;;19.24;28.08;102292.51;103823;1286;73112;-76
2023/02/11 08:23:53;;;;;;;62.30;29.20;;;;;;;18.20;29.51;102295.69;103540;1286;61413;-77
2023/02/11 08:26:24;;;;;;;60.00;29.90;;;;;;;17.90;30.22;102291.41;103387;1290;60404;-77
2023/02/11 08:28:51;;;;;;;57.70;28.30;;;;;;;18.36;30.31;102289.29;103431;1291;74596;-77
2023/02/11 08:31:20;;;;;;;72.00;35.40;;;;;;;18.21;29.91;102287.07;103573;1286;74264;-76
2023/02/11 08:33:47;;;;;;;53.10;27.20;;;;;;;17.57;29.69;102282.08;103279;1292;73917;-76
2023/02/11 08:36:15;;;;;;;57.60;27.70;;;;;;;16.18;30.21;102281.11;103070;1293;60340;-76
2023/02/11 08:38:41;;;;;;;67.90;29.30;;;;;;;14.60;31.06;102286.80;103253;1292;60574;-76
2023/02/11 08:41:07;;;;;;;59.20;27.60;;;;;;;13.67;32.52;102292.35;103291;1287;60427;-76
2023/02/11 08:43:34;;;;;;;61.50;28.80;;;;;;;12.87;33.34;102286.50;103057;1292;60401;-76
2023/02/11 08:46:01;;;;;;;71.90;29.30;;;;;;;12.03;34.19;102290.66;103288;1286;60457;-75
2023/02/11 08:48:27;;;;;;;81.70;30.90;;;;;;;11.47;34.73;102284.41;103279;1292;60341;-75
2023/02/11 08:54:15;;;;;;;80.30;29.90;;;;;;;11.30;35.56;102279.05;103479;1292;71779;-75
2023/02/11 08:56:41;;;;;;;80.00;29.90;;;;;;;10.71;35.57;102275.64;103618;1292;60391;-76
2023/02/11 08:59:08;;;;;;;77.40;30.30;;;;;;;10.06;36.16;102268.48;103526;1291;60401;-75
2023/02/11 09:01:35;;;;;;;79.60;31.70;;;;;;;9.53;36.91;102267.71;103452;1286;60280;-75
2023/02/11 09:04:00;;;;;;;80.90;33.10;;;;;;;9.13;37.75;102264.28;103217;1286;60386;-74
2023/02/11 09:06:27;;;;;;;80.50;32.30;;;;;;;8.88;38.57;102258.18;103584;1288;60292;-75
2023/02/11 09:08:55;;;;;;;80.10;32.00;;;;;;;8.77;39.51;102253.50;103518;1292;60459;-74
2023/02/11 09:11:31;;;;;;;84.00;32.00;;;;;;;8.61;40.24;102243.01;103483;1286;74006;-74
2023/02/11 09:13:56;;;;;;;82.20;31.60;;;;;;;8.31;39.43;102241.79;103348;1289;60928;-74
2023/02/11 09:16:28;;;;;;;75.60;30.40;;;;;;;7.97;40.77;102238.35;103470;1289;60443;-73
2023/02/11 09:18:56;;;;;;;77.40;29.90;;;;;;;7.75;41.39;102233.05;103464;1287;74447;-73
2023/02/11 09:21:21;;;;;;;79.10;31.10;;;;;;;7.59;41.95;102234.06;103532;1289;74731;-74
2023/02/11 09:23:47;;;;;;;75.90;31.60;;;;;;;7.72;42.39;102230.98;103617;1289;60408;-73
2023/02/11 09:26:16;;;;;;;83.50;32.30;;;;;;;7.81;41.85;102231.23;103429;1288;60392;-73
2023/02/11 09:28:42;;;;;;;85.40;33.10;;;;;;;7.71;42.64;102223.88;103601;1286;61571;-73
2023/02/11 09:31:11;;;;;;;88.70;34.80;;;;;;;7.58;43.13;102221.19;103306;1286;60614;-74
2023/02/11 09:33:41;;;;;;;104.60;36.40;;;;;;;7.63;42.83;102216.83;103475;1286;74633;-73
2023/02/11 09:36:07;;;;;;;95.80;34.50;;;;;;;7.78;42.23;102210.90;103455;1286;74032;-73
2023/02/11 09:38:32;;;;;;;101.80;37.90;;;;;;;7.72;42.76;102208.89;103451;1286;60396;-73
2023/02/11 09:44:46;;;;;;;101.90;37.70;;;;;;;7.40;43.20;102204.48;102816;1289;600558;-73
2023/02/11 09:47:24;;;;;;;102.40;37.30;;;;;;;7.16;43.73;102207.47;103206;1293;60485;-74
2023/02/11 09:49:56;;;;;;;101.20;37.00;;;;;;;6.89;42.98;102204.46;103137;1289;61560;-73
2023/02/11 09:52:41;;;;;;;100.10;37.50;;;;;;;6.61;44.47;102198.71;103182;1289;73686;-74
2023/02/11 09:55:29;;;;;;;103.30;37.50;;;;;;;6.50;44.12;102191.52;103216;1293;74859;-72
2023/02/11 09:57:56;;;;;;;106.80;39.10;;;;;;;6.36;44.74;102182.39;99390;1288;5368548;-73
2023/02/11 10:00:34;;;;;;;103.00;38.40;;;;;;;6.38;44.50;102177.02;103351;1289;60415;-73
2023/02/11 10:03:23;;;;;;;110.60;40.60;;;;;;;6.25;44.77;102171.59;102596;1295;61715;-73
2023/02/11 10:05:58;;;;;;;98.30;38.30;;;;;;;6.12;45.70;102171.80;103262;1291;73451;-73
2023/02/11 10:08:48;;;;;;;111.00;41.00;;;;;;;6.05;45.81;102169.30;103359;1296;75041;-74
2023/02/11 10:11:16;;;;;;;105.60;39.90;;;;;;;6.11;47.10;102160.84;103281;1288;73669;-73
2023/02/11 10:14:14;;;;;;;109.40;40.30;;;;;;;6.22;46.00;102155.38;103458;1287;60312;-73
2023/02/11 10:16:57;;;;;;;110.50;38.90;;;;;;;6.29;46.32;102151.48;102751;1299;61435;-73
2023/02/11 10:19:35;;;;;;;105.80;38.20;;;;;;;6.31;45.68;102149.27;102578;1295;74148;-73
2023/02/11 10:22:24;;;;;;;99.10;35.70;;;;;;;6.26;45.59;102144.04;102486;1298;74334;-73
2023/02/11 10:24:59;;;;;;;88.30;34.50;;;;;;;6.16;46.44;102140.69;102841;1294;73951;-74
2023/02/11 10:27:31;;;;;;;101.10;37.10;;;;;;;6.13;46.36;102139.02;102883;1294;60457;-74
2023/02/11 10:30:19;;;;;;;96.70;36.20;;;;;;;6.15;47.64;102133.27;102663;1297;61925;-74
2023/02/11 10:32:59;;;;;;;99.90;33.30;;;;;;;6.19;47.41;102129.98;102403;1300;72970;-74
2023/02/11 10:35:26;;;;;;;91.20;34.10;;;;;;;6.20;47.94;102125.66;102423;1295;74960;-74
2023/02/11 10:37:53;;;;;;;89.50;34.60;;;;;;;6.18;47.69;102123.95;102651;1295;60521;-74
2023/02/11 10:40:26;;;;;;;87.70;31.70;;;;;;;6.25;47.70;102117.95;102791;1295;60447;-74
2023/02/11 10:42:54;;;;;;;87.40;32.90;;;;;;;6.26;46.68;102112.21;102576;1294;61433;-74
2023/02/11 10:45:33;;;;;;;74.60;29.60;;;;;;;6.25;47.32;102108.85;102293;1300;72845;-75
2023/02/11 10:48:02;;;;;;;75.70;29.00;;;;;;;6.15;46.90;102109.52;102353;1295;74910;-75
2023/02/11 10:50:32;;;;;;;75.00;28.90;;;;;;;6.06;47.40;102107.54;102427;1295;73963;-74
2023/02/11 10:53:10;;;;;;;84.80;29.70;;;;;;;6.05;47.55;102111.49;102725;1294;60316;-74
2023/02/11 10:55:36;;;;;;;82.90;30.10;;;;;;;6.06;48.32;102107.49;103216;1289;60341;-74
2023/02/11 10:58:02;;;;;;;69.10;27.70;;;;;;;5.99;47.65;102103.86;103058;1286;60404;-74
2023/02/11 11:00:42;;;;;;;69.70;26.30;;;;;;;5.86;48.46;102104.00;103167;1291;60856;-74
2023/02/11 11:03:24;;;;;;;70.30;26.90;;;;;;;5.90;48.66;102096.17;103128;1290;72727;-74
2023/02/11 11:05:51;;;;;;;76.60;26.30;;;;;;;5.90;48.44;102091.94;103338;1289;60318;-74
2023/02/11 11:08:18;;;;;;;66.00;24.30;;;;;;;5.85;48.55;102091.27;103410;1287;60637;-74
2023/02/11 11:11:05;;;;;;;65.50;23.80;;;;;;;5.81;48.35;102093.65;103298;1292;74851;-74
2023/02/11 11:13:40;;;;;;;70.30;24.10;;;;;;;5.59;49.39;102089.85;103376;1291;74382;-74
2023/02/11 11:16:11;;;;;;;59.10;23.70;;;;;;;5.41;49.87;102092.70;102918;1289;73853;-74
2023/02/11 11:18:38;;;;;;;64.80;24.60;;;;;;;5.28;50.30;102084.45;103356;1289;60781;-74
2023/02/11 11:21:11;;;;;;;61.00;22.70;;;;;;;5.21;50.77;102080.96;103234;1289;60752;-74
2023/02/11 11:23:37;;;;;;;60.10;24.10;;;;;;;5.13;50.24;102078.97;103257;1286;74411;-74
2023/02/11 11:26:12;;;;;;;60.90;22.40;;;;;;;5.08;50.22;102076.02;103323;1286;74803;-74
2023/02/11 11:29:00;;;;;;;61.10;23.60;;;;;;;5.03;50.13;102073.92;103323;1290;73858;-74
2023/02/11 11:31:33;;;;;;;57.90;23.60;;;;;;;4.97;50.30;102075.73;103337;1291;60261;-74
2023/02/11 11:34:03;;;;;;;65.20;25.50;;;;;;;4.88;50.67;102071.66;103309;1286;60397;-74
2023/02/11 11:36:36;;;;;;;63.00;24.60;;;;;;;4.72;50.65;102069.18;102986;1286;74289;-74
2023/02/11 11:39:16;;;;;;;67.30;26.40;;;;;;;4.57;51.26;102065.80;103072;1287;74907;-74
2023/02/11 11:41:50;;;;;;;62.30;23.40;;;;;;;4.48;52.28;102062.36;103414;1289;73867;-74
2023/02/11 11:44:38;;;;;;;67.50;24.30;;;;;;;4.49;51.88;102058.73;103382;1287;60901;-74
2023/02/11 11:47:10;;;;;;;65.80;24.60;;;;;;;4.50;51.64;102060.25;103471;1286;61324;-74
2023/02/11 11:53:19;;;;;;;66.10;25.20;;;;;;;4.43;52.24;102059.45;102867;1290;601476;-75